Time;durP1;ratioP1;P1;durP2;ratioP2;P2;SDS_P1;SDS_P2;PMS_P1;PMS_P2;Temp;Humidity;BMP_temperature;BMP_pressure;BME280_temperature;BME280_humidity;BME280_pressure;Samples;Min_cycle;Max_cycle;Signal;HPM_P1;HPM_P2
2023/08/21 00:00:55;;;;;;;3.37;2.30;;;;;23.30;101152.00;;;;2104090;28;20584;-72
2023/08/21 00:01:56;;;;;;;3.83;2.30;;;;;23.30;101150.00;;;;2102433;28;20276;-73
2023/08/21 00:02:56;;;;;;;4.13;2.60;;;;;23.30;101150.00;;;;2104084;28;20220;-72
2023/08/21 00:03:57;;;;;;;3.50;2.10;;;;;23.30;101153.00;;;;2085095;28;20263;-72
2023/08/21 00:04:57;;;;;;;6.67;2.20;;;;;23.30;101152.00;;;;2093648;28;20220;-73
2023/08/21 00:05:57;;;;;;;3.27;1.90;;;;;23.30;101150.00;;;;2093404;28;20236;-73
2023/08/21 00:06:58;;;;;;;4.23;1.83;;;;;23.30;101154.00;;;;2101159;28;20220;-72
2023/08/21 00:07:58;;;;;;;3.80;1.90;;;;;23.30;101156.00;;;;2104380;28;20226;-72
2023/08/21 00:08:59;;;;;;;5.40;2.20;;;;;23.30;101155.00;;;;2091482;28;22929;-72
2023/08/21 00:10:00;;;;;;;3.55;2.10;;;;;23.30;101158.00;;;;2101196;28;20223;-72
2023/08/21 00:11:00;;;;;;;6.03;2.40;;;;;23.30;101153.00;;;;2104262;28;20219;-72
2023/08/21 00:12:00;;;;;;;4.63;1.87;;;;;23.30;101152.00;;;;2104420;28;20302;-72
2023/08/21 00:13:01;;;;;;;2.97;2.00;;;;;23.40;101153.00;;;;2105783;28;20215;-72
2023/08/21 00:14:01;;;;;;;3.60;2.17;;;;;23.30;101148.00;;;;2092516;28;20218;-72
2023/08/21 00:15:02;;;;;;;2.93;1.80;;;;;23.40;101147.00;;;;2100010;28;20219;-72
2023/08/21 00:16:02;;;;;;;5.03;2.30;;;;;23.40;101146.00;;;;2096646;28;20289;-72
2023/08/21 00:17:03;;;;;;;5.70;2.13;;;;;23.30;101140.00;;;;2102716;28;20459;-72
2023/08/21 00:18:03;;;;;;;4.17;2.10;;;;;23.30;101153.00;;;;2103271;28;20211;-72
2023/08/21 00:19:03;;;;;;;3.77;2.00;;;;;23.30;101149.00;;;;2093503;28;20211;-72
2023/08/21 00:20:05;;;;;;;2.87;2.00;;;;;23.30;101147.00;;;;2102275;28;20268;-72
2023/08/21 00:21:05;;;;;;;3.92;2.17;;;;;23.30;101156.00;;;;2103137;28;20736;-72
2023/08/21 00:22:05;;;;;;;4.33;2.20;;;;;23.30;101148.00;;;;2105644;28;20219;-72
2023/08/21 00:23:06;;;;;;;4.43;2.20;;;;;23.30;101162.00;;;;2105450;28;20222;-72
2023/08/21 00:24:06;;;;;;;5.13;2.10;;;;;23.30;101159.00;;;;2093995;28;20215;-73
2023/08/21 00:25:07;;;;;;;4.40;2.57;;;;;23.30;101146.00;;;;2105457;28;20239;-73
2023/08/21 00:26:07;;;;;;;4.80;2.27;;;;;23.30;101153.00;;;;2103014;28;20223;-73
2023/08/21 00:27:07;;;;;;;5.30;2.23;;;;;23.20;101148.00;;;;2105725;28;20220;-73
2023/08/21 00:28:08;;;;;;;3.37;2.10;;;;;23.30;101154.00;;;;2103982;28;20227;-73
2023/08/21 00:29:08;;;;;;;3.80;2.07;;;;;23.20;101146.00;;;;2095266;28;20224;-73
2023/08/21 00:30:09;;;;;;;2.60;1.80;;;;;23.20;101147.00;;;;2104129;28;20227;-73
2023/08/21 00:31:09;;;;;;;4.60;2.00;;;;;23.30;101149.00;;;;2099880;28;20216;-72
2023/08/21 00:32:11;;;;;;;3.33;2.00;;;;;23.20;101144.00;;;;2093543;28;20208;-72
2023/08/21 00:33:12;;;;;;;3.83;2.22;;;;;23.20;101143.00;;;;2095160;28;20736;-72
2023/08/21 00:34:12;;;;;;;4.60;2.10;;;;;23.20;101142.00;;;;2085663;28;20290;-72
2023/08/21 00:35:13;;;;;;;6.17;2.50;;;;;23.20;101140.00;;;;2079883;28;20592;-72
2023/08/21 00:36:13;;;;;;;3.43;1.93;;;;;23.20;101117.00;;;;2096368;28;20204;-72
2023/08/21 00:37:13;;;;;;;5.13;2.10;;;;;23.20;101136.00;;;;2096458;28;20255;-72
2023/08/21 00:38:14;;;;;;;5.83;2.60;;;;;23.20;101127.00;;;;2091131;28;20211;-72
2023/08/21 00:39:14;;;;;;;3.70;2.20;;;;;23.20;101139.00;;;;2100435;28;20204;-72
2023/08/21 00:40:14;;;;;;;5.07;2.00;;;;;23.20;101133.00;;;;2097763;28;20261;-72
2023/08/21 00:41:15;;;;;;;3.80;2.30;;;;;23.20;101125.00;;;;2089497;28;20212;-72
2023/08/21 00:42:15;;;;;;;4.37;2.17;;;;;23.10;101130.00;;;;2086797;28;20208;-72
2023/08/21 00:43:15;;;;;;;4.60;2.90;;;;;23.10;101096.00;;;;2061902;28;20210;-72
2023/08/21 00:44:16;;;;;;;2.47;1.90;;;;;23.10;101136.00;;;;2071119;28;20206;-72
2023/08/21 00:45:16;;;;;;;4.67;1.90;;;;;23.20;101139.00;;;;2080087;28;20205;-73
2023/08/21 00:46:17;;;;;;;3.73;1.60;;;;;23.20;101143.00;;;;2093250;28;20211;-73
2023/08/21 00:47:19;;;;;;;5.30;2.20;;;;;23.20;101135.00;;;;2099303;28;20216;-73
2023/08/21 00:48:19;;;;;;;2.65;2.03;;;;;23.20;101141.00;;;;2076806;28;20760;-73
2023/08/21 00:49:20;;;;;;;2.90;2.03;;;;;23.20;101137.00;;;;2084256;28;20213;-73
2023/08/21 00:50:20;;;;;;;3.27;2.47;;;;;23.20;101138.00;;;;2094627;28;20220;-73
2023/08/21 00:51:21;;;;;;;5.13;2.30;;;;;23.10;101132.00;;;;2103604;28;20814;-73
2023/08/21 00:52:21;;;;;;;3.10;1.87;;;;;23.20;101132.00;;;;2093344;28;20228;-73
2023/08/21 00:53:21;;;;;;;3.00;1.67;;;;;23.10;101132.00;;;;2086314;28;20208;-73
2023/08/21 00:54:22;;;;;;;3.07;2.00;;;;;23.10;101129.00;;;;2103902;28;20285;-73
2023/08/21 00:55:22;;;;;;;3.47;1.87;;;;;23.20;101132.00;;;;2095690;28;20208;-73
2023/08/21 00:56:22;;;;;;;4.03;1.97;;;;;23.20;101136.00;;;;2096250;28;20208;-72
2023/08/21 00:57:23;;;;;;;2.90;1.60;;;;;23.20;101136.00;;;;2092791;28;20204;-72
2023/08/21 00:58:23;;;;;;;2.53;1.70;;;;;23.20;101130.00;;;;2084206;28;20251;-72
2023/08/21 00:59:23;;;;;;;4.47;1.80;;;;;23.20;101133.00;;;;2095077;28;20597;-72
2023/08/21 01:00:24;;;;;;;2.73;1.70;;;;;23.20;101134.00;;;;2095774;28;20219;-72
2023/08/21 01:01:25;;;;;;;5.40;1.73;;;;;23.10;101134.00;;;;2087599;28;20217;-73
2023/08/21 01:02:25;;;;;;;4.05;1.60;;;;;23.10;101140.00;;;;2086625;28;20211;-73
2023/08/21 01:03:26;;;;;;;4.97;1.80;;;;;23.10;101140.00;;;;2093245;28;20234;-72
2023/08/21 01:04:26;;;;;;;2.93;1.90;;;;;23.10;101143.00;;;;2099144;28;20208;-72
2023/08/21 01:05:27;;;;;;;2.40;1.80;;;;;23.10;101142.00;;;;2103595;28;20735;-72
2023/08/21 01:06:27;;;;;;;4.33;1.80;;;;;23.10;101142.00;;;;2105504;28;20583;-72
2023/08/21 01:07:27;;;;;;;2.37;1.90;;;;;23.00;101146.00;;;;2104035;28;20809;-72
2023/08/21 01:08:33;;;;;;;4.13;1.73;;;;;23.10;101142.00;;;;2093019;28;20905;-72
2023/08/21 01:09:39;;;;;;;3.10;2.13;;;;;23.00;101149.00;;;;2099391;28;20211;-72
2023/08/21 01:10:50;;;;;;;4.50;1.67;;;;;23.10;101143.00;;;;2105065;28;20293;-72
2023/08/21 01:12:15;;;;;;;3.90;1.98;;;;;23.00;101142.00;;;;2095034;28;20274;-72
2023/08/21 01:13:45;;;;;;;5.60;1.95;;;;;23.10;101140.00;;;;2085172;28;20914;-72
2023/08/21 01:14:57;;;;;;;4.78;2.13;;;;;23.00;101148.00;;;;2102940;28;20321;-72
2023/08/21 01:15:57;;;;;;;4.45;1.80;;;;;23.00;101142.00;;;;2093888;28;20224;-72
2023/08/21 01:16:59;;;;;;;5.77;1.70;;;;;23.00;101145.00;;;;2079338;28;20626;-72
2023/08/21 01:17:59;;;;;;;3.25;1.55;;;;;23.00;101105.00;;;;2091880;28;20303;-72
2023/08/21 01:19:00;;;;;;;4.13;2.00;;;;;23.00;101144.00;;;;2075428;28;20232;-72
2023/08/21 01:20:00;;;;;;;5.43;1.97;;;;;23.00;101136.00;;;;2085901;28;20248;-72
2023/08/21 01:21:03;;;;;;;2.73;1.50;;;;;23.00;101145.00;;;;2083799;28;20726;-72
2023/08/21 01:22:04;;;;;;;4.90;1.75;;;;;23.00;101136.00;;;;2087191;28;20217;-72
2023/08/21 01:23:05;;;;;;;3.20;1.63;;;;;23.00;101137.00;;;;2101480;28;20243;-72
2023/08/21 01:24:06;;;;;;;3.28;1.85;;;;;23.00;101140.00;;;;2083985;28;20265;-72
2023/08/21 01:25:07;;;;;;;3.17;1.60;;;;;23.00;101146.00;;;;2087819;28;20232;-72
2023/08/21 01:26:07;;;;;;;3.40;1.60;;;;;23.00;101148.00;;;;2086863;28;20588;-73
2023/08/21 01:27:08;;;;;;;6.20;1.67;;;;;22.90;101117.00;;;;2103872;28;20553;-72
2023/08/21 01:28:08;;;;;;;9.02;2.20;;;;;22.90;101152.00;;;;2093378;28;20227;-72
2023/08/21 01:29:09;;;;;;;6.13;1.80;;;;;23.00;101155.00;;;;2070162;28;20213;-72
2023/08/21 01:30:09;;;;;;;3.33;1.67;;;;;23.00;101153.00;;;;2096272;28;20289;-72
2023/08/21 01:31:26;;;;;;;4.60;1.80;;;;;23.00;101153.00;;;;2094136;28;20216;-72
2023/08/21 01:32:42;;;;;;;3.10;1.90;;;;;22.90;101150.00;;;;2089587;28;20212;-72
2023/08/21 01:33:47;;;;;;;3.20;1.90;;;;;22.90;101157.00;;;;2078145;28;20223;-72
2023/08/21 01:34:47;;;;;;;4.65;1.73;;;;;23.00;101148.00;;;;2087327;28;20308;-72
2023/08/21 01:35:48;;;;;;;4.30;1.77;;;;;22.90;101147.00;;;;2083150;28;20232;-72
2023/08/21 01:36:48;;;;;;;3.27;1.80;;;;;22.90;101146.00;;;;2087802;28;20221;-72
2023/08/21 01:37:48;;;;;;;3.73;1.83;;;;;22.90;101142.00;;;;2086653;28;20248;-72
2023/08/21 01:38:48;;;;;;;3.40;1.73;;;;;22.90;101145.00;;;;2079444;28;20223;-72
2023/08/21 01:39:49;;;;;;;2.30;1.50;;;;;23.00;101147.00;;;;2081256;28;20217;-72
2023/08/21 01:40:49;;;;;;;4.60;1.60;;;;;23.00;101148.00;;;;2094327;28;20743;-72
2023/08/21 01:41:49;;;;;;;2.93;1.80;;;;;23.00;101146.00;;;;2105121;28;20719;-72
2023/08/21 01:42:50;;;;;;;3.30;1.80;;;;;22.90;101146.00;;;;2104019;28;20207;-72
2023/08/21 01:43:50;;;;;;;4.80;1.60;;;;;22.90;101146.00;;;;2094296;28;20223;-72
2023/08/21 01:44:50;;;;;;;5.63;1.90;;;;;22.90;101142.00;;;;2103497;28;20294;-72
2023/08/21 01:45:51;;;;;;;5.60;2.00;;;;;22.90;101143.00;;;;2104520;28;20207;-72
2023/08/21 01:46:51;;;;;;;5.20;1.77;;;;;22.90;101142.00;;;;2100504;28;20277;-72
2023/08/21 01:47:51;;;;;;;2.50;1.60;;;;;22.90;101143.00;;;;2104537;28;20298;-72
2023/08/21 01:48:52;;;;;;;5.60;1.60;;;;;22.90;101141.00;;;;2094481;28;20234;-72
2023/08/21 01:49:52;;;;;;;2.33;1.67;;;;;22.90;101144.00;;;;2103540;28;20276;-72
2023/08/21 01:50:52;;;;;;;3.00;1.70;;;;;22.90;101145.00;;;;2103667;28;20216;-72
2023/08/21 01:51:53;;;;;;;2.87;1.80;;;;;22.90;101142.00;;;;2103143;28;20209;-72
2023/08/21 01:52:53;;;;;;;3.07;1.80;;;;;22.90;101138.00;;;;2103586;28;20269;-72
2023/08/21 01:53:53;;;;;;;4.43;1.63;;;;;22.80;101142.00;;;;2094540;28;20250;-72
2023/08/21 01:54:54;;;;;;;1.87;1.50;;;;;22.80;101150.00;;;;2102775;28;20476;-72
2023/08/21 01:55:54;;;;;;;3.23;1.50;;;;;22.80;101143.00;;;;2103573;28;20227;-72
2023/08/21 01:56:54;;;;;;;2.80;1.63;;;;;22.80;101142.00;;;;2104095;28;20235;-72
2023/08/21 01:57:55;;;;;;;2.67;1.73;;;;;22.80;101138.00;;;;2105026;28;20207;-72
2023/08/21 01:58:55;;;;;;;3.70;1.80;;;;;22.80;101133.00;;;;2091660;28;20214;-72
2023/08/21 01:59:55;;;;;;;3.83;2.03;;;;;22.80;101135.00;;;;2096628;28;20244;-72
2023/08/21 02:00:56;;;;;;;3.60;1.60;;;;;22.80;101134.00;;;;2103673;28;20268;-72
2023/08/21 02:01:56;;;;;;;3.20;1.80;;;;;22.90;101135.00;;;;2102082;28;20215;-72
2023/08/21 02:02:56;;;;;;;3.70;2.23;;;;;22.80;101132.00;;;;2104974;28;20254;-72
2023/08/21 02:03:57;;;;;;;3.73;1.73;;;;;22.80;101133.00;;;;2093013;28;20227;-72
2023/08/21 02:04:57;;;;;;;4.60;1.93;;;;;22.80;101137.00;;;;2100098;28;20220;-72
2023/08/21 02:06:00;;;;;;;3.10;1.57;;;;;22.70;101128.00;;;;2104667;28;20224;-72
2023/08/21 02:07:00;;;;;;;3.80;1.60;;;;;22.80;101131.00;;;;2103488;28;20294;-72
2023/08/21 02:08:01;;;;;;;2.07;1.57;;;;;22.70;101130.00;;;;2104901;28;20211;-72
2023/08/21 02:09:01;;;;;;;7.50;2.53;;;;;22.70;101129.00;;;;2093068;28;20284;-72
2023/08/21 02:10:01;;;;;;;1.70;1.50;;;;;22.70;101130.00;;;;2094279;28;20244;-72
2023/08/21 02:11:02;;;;;;;3.20;1.70;;;;;22.60;101131.00;;;;2094483;28;20224;-72
2023/08/21 02:12:02;;;;;;;3.40;1.87;;;;;22.70;101128.00;;;;2103395;28;20207;-73
2023/08/21 02:13:03;;;;;;;5.53;1.70;;;;;22.70;101126.00;;;;2104978;28;20216;-72
2023/08/21 02:14:03;;;;;;;2.80;1.50;;;;;22.70;101134.00;;;;2088330;28;20220;-72
2023/08/21 02:15:04;;;;;;;5.40;2.20;;;;;22.70;101118.00;;;;2103981;28;20208;-72
2023/08/21 02:16:04;;;;;;;3.97;1.50;;;;;22.70;101123.00;;;;2101796;28;20600;-72
2023/08/21 02:17:05;;;;;;;2.03;1.70;;;;;22.70;101127.00;;;;2102910;28;20281;-73
2023/08/21 02:18:06;;;;;;;3.85;1.83;;;;;22.70;101119.00;;;;2104797;28;20287;-72
2023/08/21 02:19:06;;;;;;;3.27;1.90;;;;;22.70;101133.00;;;;2087625;28;20223;-72
2023/08/21 02:20:07;;;;;;;3.33;2.13;;;;;22.70;101129.00;;;;2102304;28;20242;-72
2023/08/21 02:21:07;;;;;;;2.58;1.55;;;;;22.60;101131.00;;;;2101954;28;20583;-72
2023/08/21 02:22:08;;;;;;;2.07;1.57;;;;;22.70;101136.00;;;;2103893;28;20212;-72
2023/08/21 02:23:08;;;;;;;1.47;1.37;;;;;22.60;101123.00;;;;2101269;28;20231;-72
2023/08/21 02:24:08;;;;;;;2.77;1.77;;;;;22.60;101127.00;;;;2091570;28;20306;-72
2023/08/21 02:25:09;;;;;;;3.03;1.77;;;;;22.60;101132.00;;;;2100152;28;20231;-72
2023/08/21 02:26:09;;;;;;;2.23;1.73;;;;;22.70;101132.00;;;;2103263;28;20220;-72
2023/08/21 02:27:09;;;;;;;2.33;1.80;;;;;22.70;101125.00;;;;2104755;28;20227;-73
2023/08/21 02:28:10;;;;;;;3.83;1.80;;;;;22.60;101137.00;;;;2104734;28;20228;-72
2023/08/21 02:29:10;;;;;;;3.80;2.10;;;;;22.60;101124.00;;;;2092117;28;20230;-72
2023/08/21 02:30:11;;;;;;;3.37;1.80;;;;;22.60;101136.00;;;;2096771;28;20248;-72
2023/08/21 02:31:11;;;;;;;5.70;2.30;;;;;22.60;101131.00;;;;2099961;28;20230;-72
2023/08/21 02:32:11;;;;;;;2.90;1.60;;;;;22.60;101125.00;;;;2101360;28;20208;-72
2023/08/21 02:33:12;;;;;;;3.83;1.60;;;;;22.60;101131.00;;;;2100755;28;20364;-72
2023/08/21 02:34:13;;;;;;;3.67;2.17;;;;;22.60;101127.00;;;;2087058;28;20233;-72
2023/08/21 02:35:13;;;;;;;5.67;1.80;;;;;22.70;101134.00;;;;2095330;28;20451;-72
2023/08/21 02:36:13;;;;;;;2.70;2.10;;;;;22.60;101130.00;;;;2102728;28;20226;-73
2023/08/21 02:37:14;;;;;;;3.20;1.77;;;;;22.60;101128.00;;;;2104582;28;20895;-72
2023/08/21 02:38:14;;;;;;;2.23;1.70;;;;;22.60;101130.00;;;;2093586;28;20610;-72
2023/08/21 02:39:15;;;;;;;3.80;1.77;;;;;22.60;101138.00;;;;2081817;28;20220;-72
2023/08/21 02:40:15;;;;;;;3.93;2.10;;;;;22.60;101133.00;;;;2102723;28;20226;-72
2023/08/21 02:41:15;;;;;;;3.10;2.10;;;;;22.50;101121.00;;;;2094387;28;20724;-72
2023/08/21 02:42:16;;;;;;;2.60;1.70;;;;;22.50;101138.00;;;;2095491;28;20712;-72
2023/08/21 02:43:16;;;;;;;4.63;1.80;;;;;22.60;101138.00;;;;2093313;28;20219;-72
2023/08/21 02:44:17;;;;;;;4.03;1.90;;;;;22.50;101147.00;;;;2102858;28;20216;-72
2023/08/21 02:45:18;;;;;;;4.93;2.33;;;;;22.60;101112.00;;;;2103122;28;20215;-72
2023/08/21 02:46:19;;;;;;;3.75;2.00;;;;;22.60;101149.00;;;;2104459;28;20245;-72
2023/08/21 02:47:20;;;;;;;3.10;1.87;;;;;22.60;101147.00;;;;2103659;28;20215;-72
2023/08/21 02:48:20;;;;;;;3.87;1.83;;;;;22.50;101151.00;;;;2094209;28;20208;-72
2023/08/21 02:49:20;;;;;;;5.57;2.33;;;;;22.50;101153.00;;;;2103780;28;20215;-73
2023/08/21 02:50:21;;;;;;;4.80;2.13;;;;;22.50;101152.00;;;;2102154;28;20219;-73
2023/08/21 02:51:21;;;;;;;2.20;1.90;;;;;22.50;101151.00;;;;2104499;28;20702;-72
2023/08/21 02:52:21;;;;;;;4.60;2.00;;;;;22.50;101159.00;;;;2100105;28;20238;-72
2023/08/21 02:53:22;;;;;;;4.60;2.00;;;;;22.50;101155.00;;;;2085196;28;20208;-72
2023/08/21 02:54:22;;;;;;;3.13;1.70;;;;;22.50;101150.00;;;;2093944;28;20208;-72
2023/08/21 02:55:22;;;;;;;2.13;1.90;;;;;22.50;101153.00;;;;2097466;28;20212;-72
2023/08/21 02:56:22;;;;;;;2.63;1.60;;;;;22.50;101155.00;;;;2104366;28;20302;-72
2023/08/21 02:57:24;;;;;;;7.63;1.87;;;;;22.50;101147.00;;;;2098351;28;20215;-73
2023/08/21 02:58:24;;;;;;;3.33;1.80;;;;;22.50;101149.00;;;;2092971;28;20219;-73
2023/08/21 02:59:24;;;;;;;3.80;2.20;;;;;22.50;101155.00;;;;2102239;28;20233;-73
2023/08/21 03:00:25;;;;;;;6.23;2.23;;;;;22.50;101143.00;;;;2097287;28;20232;-72
2023/08/21 03:01:25;;;;;;;3.00;2.00;;;;;22.50;101148.00;;;;2094977;28;20207;-73
2023/08/21 03:02:25;;;;;;;3.00;1.77;;;;;22.50;101140.00;;;;2094531;28;20250;-73
2023/08/21 03:03:26;;;;;;;3.03;1.80;;;;;22.50;101143.00;;;;2085124;28;20741;-73
2023/08/21 03:04:26;;;;;;;4.07;2.00;;;;;22.40;101144.00;;;;2085183;28;20583;-73
2023/08/21 03:05:26;;;;;;;3.20;1.90;;;;;22.50;101146.00;;;;2082804;28;20608;-73
2023/08/21 03:06:27;;;;;;;2.87;2.00;;;;;22.50;101148.00;;;;2094218;28;20767;-73
2023/08/21 03:07:27;;;;;;;3.73;1.50;;;;;22.50;101151.00;;;;2095276;28;20696;-73
2023/08/21 03:08:27;;;;;;;3.23;1.80;;;;;22.50;101143.00;;;;2093815;28;20839;-72
2023/08/21 03:09:28;;;;;;;3.40;1.80;;;;;22.50;101144.00;;;;2097248;28;20796;-72
2023/08/21 03:10:33;;;;;;;3.20;2.00;;;;;22.50;101148.00;;;;2103940;28;20764;-72
2023/08/21 03:11:33;;;;;;;4.95;2.72;;;;;22.50;101143.00;;;;2103443;28;20207;-72
2023/08/21 03:12:33;;;;;;;3.50;2.90;;;;;22.50;101147.00;;;;2104369;28;20577;-72
2023/08/21 03:13:34;;;;;;;4.27;2.27;;;;;22.40;101143.00;;;;2092415;28;20408;-72
2023/08/21 03:14:34;;;;;;;5.80;2.03;;;;;22.40;101143.00;;;;2104254;28;20302;-72
2023/08/21 03:15:35;;;;;;;3.03;2.37;;;;;22.40;101145.00;;;;2086816;28;20916;-72
2023/08/21 03:16:35;;;;;;;3.90;2.33;;;;;22.40;101144.00;;;;2083537;28;20216;-73
2023/08/21 03:17:35;;;;;;;3.03;2.33;;;;;22.50;101140.00;;;;2088485;28;20232;-73
2023/08/21 03:18:54;;;;;;;2.47;1.97;;;;;22.50;101132.00;;;;2091038;28;20280;-72
2023/08/21 03:19:54;;;;;;;3.17;1.98;;;;;22.50;101133.00;;;;2103672;28;20256;-72
2023/08/21 03:20:55;;;;;;;3.40;1.97;;;;;22.40;101129.00;;;;2094322;28;20255;-72
2023/08/21 03:21:55;;;;;;;3.17;1.93;;;;;22.40;101142.00;;;;2095379;28;20215;-72
2023/08/21 03:22:55;;;;;;;5.60;1.93;;;;;22.40;101130.00;;;;2093897;28;20220;-72
2023/08/21 03:23:57;;;;;;;3.10;2.40;;;;;22.40;101130.00;;;;2069029;28;20218;-73
2023/08/21 03:24:57;;;;;;;3.00;2.20;;;;;22.30;101117.00;;;;2086822;28;20216;-72
2023/08/21 03:25:58;;;;;;;4.23;1.60;;;;;22.40;101136.00;;;;2084925;28;20232;-72
2023/08/21 03:26:58;;;;;;;2.60;2.20;;;;;22.40;101130.00;;;;2070764;28;20225;-72
2023/08/21 03:27:58;;;;;;;2.30;2.00;;;;;22.40;101131.00;;;;2090318;28;20257;-72
2023/08/21 03:28:59;;;;;;;3.30;2.40;;;;;22.40;101138.00;;;;2085013;28;20322;-73
2023/08/21 03:30:00;;;;;;;4.07;2.00;;;;;22.40;101138.00;;;;2104021;28;20264;-72
2023/08/21 03:31:01;;;;;;;1.90;1.60;;;;;22.40;101132.00;;;;2099719;28;20223;-73
2023/08/21 03:32:01;;;;;;;7.20;2.30;;;;;22.40;101143.00;;;;2101406;28;20240;-72
2023/08/21 03:33:02;;;;;;;2.90;1.87;;;;;22.50;101137.00;;;;2103739;28;20215;-72
2023/08/21 03:34:02;;;;;;;4.13;2.20;;;;;22.50;101134.00;;;;2089096;28;20216;-72
2023/08/21 03:35:03;;;;;;;6.23;2.37;;;;;22.40;101138.00;;;;2101519;28;20251;-72
2023/08/21 03:36:03;;;;;;;3.60;2.00;;;;;22.40;101132.00;;;;2101733;28;20220;-72
2023/08/21 03:37:04;;;;;;;3.73;2.10;;;;;22.40;101133.00;;;;2103259;28;20223;-72
2023/08/21 03:38:04;;;;;;;3.17;2.27;;;;;22.40;101133.00;;;;2103545;28;20219;-72
2023/08/21 03:39:05;;;;;;;2.53;1.80;;;;;22.40;101137.00;;;;2094029;28;20230;-72
2023/08/21 03:40:06;;;;;;;4.28;2.00;;;;;22.40;101131.00;;;;2102601;28;20271;-72
2023/08/21 03:41:07;;;;;;;2.93;2.33;;;;;22.40;101131.00;;;;2104190;28;20261;-72
2023/08/21 03:42:07;;;;;;;2.83;2.33;;;;;22.40;101134.00;;;;2103314;28;20466;-72
2023/08/21 03:43:07;;;;;;;2.70;2.20;;;;;22.40;101128.00;;;;2104411;28;20215;-72
2023/08/21 03:44:07;;;;;;;2.87;2.27;;;;;22.40;101131.00;;;;2081531;28;20310;-72
2023/08/21 03:45:08;;;;;;;5.70;2.37;;;;;22.30;101127.00;;;;2095921;28;20216;-72
2023/08/21 03:46:08;;;;;;;3.83;2.27;;;;;22.40;101135.00;;;;2105718;28;20218;-72
2023/08/21 03:47:09;;;;;;;2.60;1.83;;;;;22.40;101128.00;;;;2104058;28;20239;-72
2023/08/21 03:48:09;;;;;;;2.80;1.70;;;;;22.40;101129.00;;;;2106011;28;20581;-72
2023/08/21 03:49:09;;;;;;;4.37;1.97;;;;;22.40;101125.00;;;;2094544;28;20212;-73
2023/08/21 03:50:10;;;;;;;4.93;1.93;;;;;22.40;101128.00;;;;2106014;28;20308;-72
2023/08/21 03:51:10;;;;;;;4.50;2.03;;;;;22.40;101126.00;;;;2100531;28;20731;-72
2023/08/21 03:52:10;;;;;;;3.50;2.10;;;;;22.40;101127.00;;;;2103404;28;20588;-72
2023/08/21 03:53:10;;;;;;;6.17;2.23;;;;;22.30;101123.00;;;;2100115;28;20555;-72
2023/08/21 03:54:11;;;;;;;4.23;2.07;;;;;22.30;101120.00;;;;2092611;28;20692;-73
2023/08/21 03:55:11;;;;;;;2.93;1.80;;;;;22.30;101125.00;;;;2104991;28;20750;-73
2023/08/21 03:56:11;;;;;;;3.17;2.07;;;;;22.40;101127.00;;;;2101197;28;20618;-72
2023/08/21 03:57:12;;;;;;;4.17;1.70;;;;;22.30;101131.00;;;;2105769;28;20700;-72
2023/08/21 03:58:13;;;;;;;2.30;2.07;;;;;22.30;101122.00;;;;2103689;28;20741;-72
2023/08/21 03:59:13;;;;;;;3.63;2.10;;;;;22.30;101131.00;;;;2084568;28;20709;-72
2023/08/21 04:00:14;;;;;;;2.87;2.07;;;;;22.30;101117.00;;;;2096763;28;20454;-72
2023/08/21 04:01:15;;;;;;;3.27;2.03;;;;;22.30;101120.00;;;;2104947;28;20249;-72
2023/08/21 04:02:16;;;;;;;6.28;2.10;;;;;22.30;101122.00;;;;2096911;28;20535;-72
2023/08/21 04:03:16;;;;;;;3.80;2.43;;;;;22.30;101129.00;;;;2087291;28;20689;-72
2023/08/21 04:04:16;;;;;;;3.53;2.47;;;;;22.30;101114.00;;;;2100622;28;20230;-72
2023/08/21 04:05:17;;;;;;;4.10;2.47;;;;;22.30;101140.00;;;;2096369;28;20208;-72
2023/08/21 04:06:17;;;;;;;3.43;2.17;;;;;22.30;101133.00;;;;2096808;28;20219;-72
2023/08/21 04:07:17;;;;;;;2.70;2.00;;;;;22.30;101128.00;;;;2104936;28;20211;-72
2023/08/21 04:08:17;;;;;;;5.23;1.90;;;;;22.20;101137.00;;;;2095635;28;20601;-72
2023/08/21 04:09:18;;;;;;;5.30;2.77;;;;;22.20;101133.00;;;;2102577;28;20628;-72
2023/08/21 04:10:18;;;;;;;6.27;3.60;;;;;22.20;101140.00;;;;2105882;28;20585;-72
2023/08/21 04:11:18;;;;;;;6.00;2.33;;;;;22.30;101139.00;;;;2104042;28;20208;-72
2023/08/21 04:12:19;;;;;;;2.37;2.17;;;;;22.20;101148.00;;;;2105789;28;20208;-72
2023/08/21 04:13:19;;;;;;;2.80;2.07;;;;;22.20;101148.00;;;;2095493;28;20223;-72
2023/08/21 04:14:19;;;;;;;3.17;2.20;;;;;22.20;101139.00;;;;2097913;28;20266;-72
2023/08/21 04:15:20;;;;;;;3.43;2.73;;;;;22.20;101137.00;;;;2103804;28;20211;-72
2023/08/21 04:16:21;;;;;;;2.80;2.17;;;;;22.20;101132.00;;;;2103530;28;20246;-73
2023/08/21 04:17:22;;;;;;;3.95;2.63;;;;;22.20;101128.00;;;;2104752;28;20757;-72
2023/08/21 04:18:22;;;;;;;6.83;2.30;;;;;22.20;101128.00;;;;2094233;28;20257;-72
2023/08/21 04:19:23;;;;;;;3.67;2.47;;;;;22.20;101133.00;;;;2105792;28;20463;-72
2023/08/21 04:20:23;;;;;;;2.87;2.37;;;;;22.20;101133.00;;;;2105440;28;20223;-72
2023/08/21 04:21:23;;;;;;;3.53;2.20;;;;;22.10;101138.00;;;;2104941;28;20219;-72
2023/08/21 04:22:24;;;;;;;5.50;2.40;;;;;22.20;101128.00;;;;2105846;28;20923;-72
2023/08/21 04:23:24;;;;;;;3.40;2.50;;;;;22.20;101141.00;;;;2093765;28;20280;-72
2023/08/21 04:24:24;;;;;;;4.67;2.50;;;;;22.20;101140.00;;;;2098324;28;20677;-72
2023/08/21 04:25:25;;;;;;;3.27;1.90;;;;;22.10;101139.00;;;;2102525;28;20250;-72
2023/08/21 04:26:25;;;;;;;4.03;2.80;;;;;22.20;101138.00;;;;2105476;28;20219;-72
2023/08/21 04:27:26;;;;;;;2.50;2.10;;;;;22.20;101136.00;;;;2096740;28;20208;-72
2023/08/21 04:28:26;;;;;;;4.90;2.30;;;;;22.20;101141.00;;;;2076793;28;20242;-72
2023/08/21 04:29:26;;;;;;;4.50;2.30;;;;;22.20;101142.00;;;;2088252;28;20232;-72
2023/08/21 04:30:27;;;;;;;3.00;2.10;;;;;22.30;101141.00;;;;2091816;28;20217;-72
2023/08/21 04:31:27;;;;;;;5.00;2.40;;;;;22.30;101147.00;;;;2104905;28;20223;-72
2023/08/21 04:32:27;;;;;;;3.13;2.10;;;;;22.30;101149.00;;;;2099513;28;20224;-73
2023/08/21 04:33:28;;;;;;;2.80;2.40;;;;;22.30;101143.00;;;;2094608;28;20208;-73
2023/08/21 04:34:28;;;;;;;4.37;2.37;;;;;22.20;101139.00;;;;2090707;28;20223;-73
2023/08/21 04:35:29;;;;;;;3.27;2.57;;;;;22.20;101140.00;;;;2094640;28;20246;-73
2023/08/21 04:36:29;;;;;;;3.43;2.23;;;;;22.20;101142.00;;;;2105611;28;20214;-73
2023/08/21 04:37:29;;;;;;;2.60;2.00;;;;;22.20;101146.00;;;;2104167;28;20280;-72
2023/08/21 04:38:30;;;;;;;3.90;2.80;;;;;22.20;101147.00;;;;2095475;28;20684;-73
2023/08/21 04:39:30;;;;;;;5.30;2.17;;;;;22.20;101151.00;;;;2104125;28;20719;-73
2023/08/21 04:40:30;;;;;;;3.73;2.23;;;;;22.10;101147.00;;;;2105666;28;20586;-73
2023/08/21 04:41:31;;;;;;;7.13;2.57;;;;;22.10;101150.00;;;;2105541;28;20219;-73
2023/08/21 04:42:31;;;;;;;4.07;2.17;;;;;22.10;101148.00;;;;2104377;28;20246;-73
2023/08/21 04:43:31;;;;;;;3.23;2.87;;;;;22.10;101152.00;;;;2095384;28;20215;-73
2023/08/21 04:44:32;;;;;;;4.30;1.90;;;;;22.20;101150.00;;;;2102010;28;20250;-72
2023/08/21 04:45:32;;;;;;;3.50;2.20;;;;;22.10;101143.00;;;;2080145;28;20225;-72
2023/08/21 04:46:32;;;;;;;4.30;2.03;;;;;22.10;101145.00;;;;2071347;28;20325;-72
2023/08/21 04:47:33;;;;;;;3.40;2.10;;;;;22.10;101141.00;;;;2066874;28;20293;-72
2023/08/21 04:48:33;;;;;;;5.40;2.20;;;;;22.20;101146.00;;;;2078110;28;20216;-72
2023/08/21 04:49:33;;;;;;;3.40;2.40;;;;;22.20;101149.00;;;;2104157;28;20219;-72
2023/08/21 04:50:34;;;;;;;3.50;2.40;;;;;22.20;101149.00;;;;2105431;28;20243;-72
2023/08/21 04:51:34;;;;;;;4.13;2.30;;;;;22.20;101151.00;;;;2104443;28;20223;-72
2023/08/21 04:52:34;;;;;;;3.70;2.27;;;;;22.20;101160.00;;;;2092911;28;20212;-72
2023/08/21 04:53:35;;;;;;;6.23;2.17;;;;;22.10;101154.00;;;;2083196;28;20694;-72
2023/08/21 04:54:35;;;;;;;5.03;2.23;;;;;22.20;101154.00;;;;2104005;28;20260;-72
2023/08/21 04:55:36;;;;;;;3.67;2.30;;;;;22.20;101145.00;;;;2099558;28;20246;-72
2023/08/21 04:56:36;;;;;;;5.25;2.75;;;;;22.10;101153.00;;;;2103941;28;20283;-72
2023/08/21 04:57:37;;;;;;;1.90;1.70;;;;;22.10;101150.00;;;;2105400;28;20215;-72
2023/08/21 04:58:37;;;;;;;3.13;2.20;;;;;22.10;101158.00;;;;2094069;28;20230;-72
2023/08/21 04:59:38;;;;;;;5.47;2.50;;;;;22.20;101154.00;;;;2105456;28;20213;-72
2023/08/21 05:00:38;;;;;;;4.47;2.43;;;;;22.10;101154.00;;;;2104738;28;20253;-72
2023/08/21 05:01:38;;;;;;;2.37;2.17;;;;;22.20;101145.00;;;;2105085;28;20911;-73